Tetide — IVTN — position and weather

sailwx.info

Track history (hours):
 
Tides and Currents Weather Stations Pressure Air Temp Water Temp Dewpoint Dewpoint Depression Visibility Wind Speed Wind Dir Waves Ship Positions

Tetide

Last reported at 2014-Dec-21 17:05 UTC. Time now 2014-Dec-21 18:01 UTC.
Position N 41°10' E 013°36'.

Length 70 m; draft 3.6 m.

Type: Passenger vessel. MMSI: 247043100.

Date/timePositionNaut miles runAvg speedWind from/ knotsBaromVisibWave heightAir tempDewpointWater temp
2014-Dec-21 17:05N 41°10' E 013°36'814.9
2014-Dec-21 16:33N 41°03' E 013°32'1513.1
2014-Dec-21 15:22N 40°48' E 013°26'6 1.3
2014-Dec-21 10:33N 40°54' E 013°27'1515.1
2014-Dec-21 09:33N 41°08' E 013°34'6 4.6
2014-Dec-21 08:21N 41°13' E 013°36'4 0.2
2014-Dec-20 15:30N 41°10' E 013°36'1415.3
2014-Dec-20 14:34N 40°56' E 013°29'9 2.0
2014-Dec-20 10:17N 40°48' E 013°26'1413.8
2014-Dec-20 09:18N 41°01' E 013°31'5 0.3
2014-Dec-19 15:14N 41°06' E 013°34'1115.4
2014-Dec-19 14:33N 40°56' E 013°29'9 2.0
2014-Dec-19 10:19N 40°48' E 013°26'1013.3
2014-Dec-19 09:33N 40°58' E 013°29'1515.0
2014-Dec-19 08:31N 41°12' E 013°36'23 7.2
2014-Dec-19 05:23N 40°60' E 013°11'19 1.4
2014-Dec-18 15:28N 41°08' E 013°34'1415.4
2014-Dec-18 14:33N 40°54' E 013°28'7 1.6
2014-Dec-18 10:22N 40°48' E 013°26'1314.1
2014-Dec-18 09:29N 41°00' E 013°31'16 4.7
2014-Dec-18 06:04N 41°15' E 013°37'0 0.0
2014-Dec-18 05:21N 41°15' E 013°37'0 0.0
2014-Dec-18 04:27N 41°15' E 013°37'10 0.7
2014-Dec-17 15:15N 41°06' E 013°33'1115.2
2014-Dec-17 14:33N 40°56' E 013°29'8 2.0
2014-Dec-17 10:22N 40°48' E 013°26'1113.3
2014-Dec-17 09:31N 40°59' E 013°30'1614.7
2014-Dec-17 08:25N 41°14' E 013°37'1 1.3
2014-Dec-17 07:26N 41°15' E 013°37'8 9.1
2014-Dec-17 06:33N 41°09' E 013°30'13 0.8
2014-Dec-16 14:34N 40°56' E 013°29'8 7.9
2014-Dec-16 13:31N 40°48' E 013°26'0 0.0
2014-Dec-16 12:12N 40°48' E 013°26'0 0.0
2014-Dec-16 11:31N 40°48' E 013°26'0 0.0
2014-Dec-16 10:29N 40°48' E 013°26'18 0.9
2014-Dec-15 15:13N 41°05' E 013°33'1014.5
2014-Dec-15 14:33N 40°56' E 013°29'8 1.9
2014-Dec-15 10:23N 40°48' E 013°26'1213.3
2014-Dec-15 09:31N 40°59' E 013°30'1514.4
2014-Dec-15 08:28N 41°13' E 013°36'2 1.9
2014-Dec-15 07:26N 41°15' E 013°37'6 0.4
2014-Dec-14 15:33N 41°10' E 013°35'1514.7
2014-Dec-14 14:33N 40°56' E 013°29'8 1.9
2014-Dec-14 10:22N 40°48' E 013°26'1113.4
2014-Dec-14 09:33N 40°59' E 013°30'10 0.6
2014-Dec-13 15:27N 41°08' E 013°34'1314.7
2014-Dec-13 14:33N 40°56' E 013°29'8 1.9
2014-Dec-13 10:18N 40°48' E 013°26'1313.9
2014-Dec-13 09:22N 41°01' E 013°30'1514.6
2014-Dec-13 08:20N 41°15' E 013°37'0 0.3
2014-Dec-13 07:06N 41°15' E 013°37'2213.9
2014-Dec-13 05:32N 41°02' E 013°14'17 1.2
2014-Dec-12 15:26N 41°07' E 013°35'1314.3
2014-Dec-12 14:33N 40°55' E 013°29'7 1.6
2014-Dec-12 10:12N 40°49' E 013°26'1114.7
2014-Dec-12 09:27N 40°60' E 013°30'1614.5
2014-Dec-12 08:19N 41°15' E 013°37'0 0.1
2014-Dec-12 07:04N 41°15' E 013°37'0 0.0
2014-Dec-12 06:25N 41°15' E 013°37'0 0.0
2014-Dec-12 01:20N 41°15' E 013°37'  
Track history (hours):
 
Tides and Currents Weather Stations Pressure Air Temp Water Temp Dewpoint Dewpoint Depression Visibility Wind Speed Wind Dir Waves Ship Positions

Tetide

Last reported at 2014-Dec-21 17:05 UTC. Time now 2014-Dec-21 18:01 UTC.
Position N 41°10' E 013°36'.

Length 70 m; draft 3.6 m.

Type: Passenger vessel. MMSI: 247043100.

Date/timePositionNaut miles runAvg speedWind from/ knotsBaromVisibWave heightAir tempDewpointWater temp
2014-Dec-21 17:05N 41°10' E 013°36'814.9
2014-Dec-21 16:33N 41°03' E 013°32'1513.1
2014-Dec-21 15:22N 40°48' E 013°26'6 1.3
2014-Dec-21 10:33N 40°54' E 013°27'1515.1
2014-Dec-21 09:33N 41°08' E 013°34'6 4.6
2014-Dec-21 08:21N 41°13' E 013°36'4 0.2
2014-Dec-20 15:30N 41°10' E 013°36'1415.3
2014-Dec-20 14:34N 40°56' E 013°29'9 2.0
2014-Dec-20 10:17N 40°48' E 013°26'1413.8
2014-Dec-20 09:18N 41°01' E 013°31'5 0.3
2014-Dec-19 15:14N 41°06' E 013°34'1115.4
2014-Dec-19 14:33N 40°56' E 013°29'9 2.0
2014-Dec-19 10:19N 40°48' E 013°26'1013.3
2014-Dec-19 09:33N 40°58' E 013°29'1515.0
2014-Dec-19 08:31N 41°12' E 013°36'23 7.2
2014-Dec-19 05:23N 40°60' E 013°11'19 1.4
2014-Dec-18 15:28N 41°08' E 013°34'1415.4
2014-Dec-18 14:33N 40°54' E 013°28'7 1.6
2014-Dec-18 10:22N 40°48' E 013°26'1314.1
2014-Dec-18 09:29N 41°00' E 013°31'16 4.7
2014-Dec-18 06:04N 41°15' E 013°37'0 0.0
2014-Dec-18 05:21N 41°15' E 013°37'0 0.0
2014-Dec-18 04:27N 41°15' E 013°37'10 0.7
2014-Dec-17 15:15N 41°06' E 013°33'1115.2
2014-Dec-17 14:33N 40°56' E 013°29'8 2.0
2014-Dec-17 10:22N 40°48' E 013°26'1113.3
2014-Dec-17 09:31N 40°59' E 013°30'1614.7
2014-Dec-17 08:25N 41°14' E 013°37'1 1.3
2014-Dec-17 07:26N 41°15' E 013°37'8 9.1
2014-Dec-17 06:33N 41°09' E 013°30'13 0.8
2014-Dec-16 14:34N 40°56' E 013°29'8 7.9
2014-Dec-16 13:31N 40°48' E 013°26'0 0.0
2014-Dec-16 12:12N 40°48' E 013°26'0 0.0
2014-Dec-16 11:31N 40°48' E 013°26'0 0.0
2014-Dec-16 10:29N 40°48' E 013°26'18 0.9
2014-Dec-15 15:13N 41°05' E 013°33'1014.5
2014-Dec-15 14:33N 40°56' E 013°29'8 1.9
2014-Dec-15 10:23N 40°48' E 013°26'1213.3
2014-Dec-15 09:31N 40°59' E 013°30'1514.4
2014-Dec-15 08:28N 41°13' E 013°36'2 1.9
2014-Dec-15 07:26N 41°15' E 013°37'6 0.4
2014-Dec-14 15:33N 41°10' E 013°35'1514.7
2014-Dec-14 14:33N 40°56' E 013°29'8 1.9
2014-Dec-14 10:22N 40°48' E 013°26'1113.4
2014-Dec-14 09:33N 40°59' E 013°30'10 0.6
2014-Dec-13 15:27N 41°08' E 013°34'1314.7
2014-Dec-13 14:33N 40°56' E 013°29'8 1.9
2014-Dec-13 10:18N 40°48' E 013°26'1313.9
2014-Dec-13 09:22N 41°01' E 013°30'1514.6
2014-Dec-13 08:20N 41°15' E 013°37'0 0.3
2014-Dec-13 07:06N 41°15' E 013°37'2213.9
2014-Dec-13 05:32N 41°02' E 013°14'17 1.2
2014-Dec-12 15:26N 41°07' E 013°35'1314.3
2014-Dec-12 14:33N 40°55' E 013°29'7 1.6
2014-Dec-12 10:12N 40°49' E 013°26'1114.7
2014-Dec-12 09:27N 40°60' E 013°30'1614.5
2014-Dec-12 08:19N 41°15' E 013°37'0 0.1
2014-Dec-12 07:04N 41°15' E 013°37'0 0.0
2014-Dec-12 06:25N 41°15' E 013°37'0 0.0
2014-Dec-12 01:20N 41°15' E 013°37'  

Dump ship's entire track history